Pagina principale
METAR-TAF:

METAR-TAF

Aeroporti :

Roma-Fiumicino, Italia

Aeroporto di Roma-Fiumicino

latitudine: 41-48N, longitudine: 012-14E, altezza: 2 m

Osservazione

Il bollettino è stato emesso 30 minuti fa, alle 15:20 UTC
Vento 5 kt da nord-ovest
Temperature 13°C
Umidità 67%
Pressione 1013 hPa
Visibilità 10 km o più
Poco nuvoloso ad un'altezza di 4500 ft

METAR: LIRF 191520Z 31005KT 9999 FEW045 13/07 Q1013 NOSIG

Ora: 16:50 (15:50 UTC)

Previsione

Il bollettino è stato emesso 4 ore e 50 minuti fa, alle 11:00 UTC
Previsione valida dal 19 alle 12 UTC al 20 alle 18 UTC
Vento 10 kt da nord-ovest
Visibilità 10 km o più
nessuna nube inferiore a 1500 m e nessun cumulonembo
Evoluzione graduale
dal 19 alle 21 UTC al 19 alle 23 UTC
Vento 12 kt da nord/nord-est
Evoluzione graduale
dal 20 alle 09 UTC al 20 alle 11 UTC
Vento 10 kt da sud

TAF: LIRF 191100Z 1912/2018 32010KT CAVOK BECMG 1921/1923 02012KT BECMG 2009/2011 17010KT

Osservazioni e previsioni meteorologiche di più di 4000 aeroporti (messaggi METAR e TAF).

Le stazioni disponibili sono rappresentate dai dischi gialli e rossi sulla carta.

Puntare il mouse per vedere il nome della stazione.

Clicca sopra per visualizzare le osservazioni e previsioni meteorologiche.

Per cambiare la mappa : fare clic sui pulsanti verdi con una croce nera per ingrandire, il pulsante verde con un trattino per diminuire, o sulla freccia verde per le mappe adiacenti.


METAR-TAF: